Tropical Cyclones
[Index]
Main Index Home Page Stock Weather Photos Extreme Storms Discussion Storm News and Storm Chasing Reports Tropical Cyclones / Hurricanes / Typhoons Weather Data and Links Wild Fires / Bushfires Weather Observation Techniques Weather Picture Catalogue Tornado Pictures and Reports Stock Video Footage and DVDs for sale
Season 1986-1987 Tropical Cyclone KAY Track Map
Season 1986-1987 Summaries: [BoM-AU] [JTWC-AU] [JTWC-SIO] [JTWC-SPAC] [JTWC-SH]
<<- Previous TC | BoM 1986-1987 Season | Next TC ->>

click for intensity scale information  Lat/long Grid: Show Hide

 Date Labels: Show Hide

Bureau of Meteorology Tropical Cyclone Data

Name: KAY
Number: 700 / 198687_06

08 Apr 1987 00:00 UTC to 17 Apr 1987 00:00 UTC

    date/time    lat    long    hPa   cat  kts
1987-04-08 00    8.5   140.1   1003                     
1987-04-08 06    8.8   139.4    999                     
1987-04-08 12    8.9   138.0    993    1                
1987-04-08 18    9.3   136.6    993    1                
1987-04-09 00    9.8   136.2    993    1                
1987-04-09 06   10.1   135.6    990    1                
1987-04-09 12   10.3   134.6    987    1                
1987-04-09 18   10.7   133.9    987    1                
1987-04-10 00   11.2   133.2    987    1                
1987-04-10 03   11.5   131.3    987    1                
1987-04-10 06   12.0   130.7    987    1                
1987-04-10 12   11.8   130.4    988    1                
1987-04-10 18   11.5   130.0    990    1                
1987-04-11 00   11.2   129.0    991    1                
1987-04-11 06   11.9   128.0    993    1                
1987-04-11 12   12.2   127.0    991    1                
1987-04-11 18   12.4   125.7    992    1    39          
1987-04-12 00   13.1   124.9    988    1    45          
1987-04-12 06   13.5   124.0    984    2    49          
1987-04-12 12   13.6   122.8    980    2    54          
1987-04-12 18   13.7   121.8    976    2    58          
1987-04-13 00   14.8   121.2    976    2    58          
1987-04-13 06   14.6   120.2    976    2    58          
1987-04-13 12   14.4   119.6    976    2    58          
1987-04-13 18   14.3   118.9    976    2    58          
1987-04-14 00   14.2   118.2    982    2    51          
1987-04-14 06   14.5   117.6    988    1    45          
1987-04-14 12   15.0   116.8    992    1    39          
1987-04-14 18   14.9   115.9    994    1    35          
1987-04-15 00   14.6   115.0    994    1    35          
1987-04-15 06   14.6   113.9    994    1    35          
1987-04-15 12   15.0   112.7    994    1    35          
1987-04-15 18   15.7   111.5    994    1    35          
1987-04-16 00   16.8   110.8    994    1    35          
1987-04-16 06   17.7   110.4    995    1    35          
1987-04-16 12   18.3   109.7    997         31          
1987-04-16 18   18.8   108.8    999         29          
1987-04-17 00   19.0   107.5   1002         23          
Winds are 10-min average.

Tropical cyclone tracks developed by Michael Bath using data from the Bureau of Meteorology and Google Maps.


[Australian Severe Weather index] [Copyright Notice] [Email Contacts] [Search This Site] [Privacy Policy]
Document: tropical_cyclone_kay.htm Updated: 30 May 2013